Arzamas, Russia
Current Conditions -  °F | °C
As of 4:30 AM on Friday 19 Dec 2014 (Local Time) from UWGG Reporting Station
Overcast Overcast  
Wind Chill: 28°   Ceiling: 1800
Heat Index: 32°   Visibility: 6mi
Dew Point: 28°   Wind: 4mph
Humidity: 87%   Direction: 220°SW
Pressure: 29.83"   Gusts: NA
Location:  55.38°N, 43.82°E
Report Text: UWGG 190130Z 22002MPS 9999 BKN018 OVC100 M00/M02 Q1010 NOSIG18150042 RMK QFE751
Loading
Personal Weather Stations






























Interactive Weather Map New forecast layout! Learn more

10-Day Weather Forecast

Advertisements
Track Severe Weather on mobile